createdAt,value
2023-05-02T00:02:04.220Z,81.75
2023-05-02T00:04:30.981Z,81.99
2023-05-02T00:06:57.725Z,82.16
2023-05-02T00:09:24.416Z,81.75
2023-05-02T00:11:50.975Z,81.83
2023-05-02T00:14:17.589Z,81.30
2023-05-02T00:16:44.439Z,81.35
2023-05-02T00:19:11.095Z,81.66
2023-05-02T00:21:37.705Z,81.82
2023-05-02T00:24:04.474Z,81.92
2023-05-02T00:26:31.084Z,81.35
2023-05-02T00:28:58.241Z,81.65
2023-05-02T00:31:24.859Z,81.68
2023-05-02T00:33:51.550Z,82.34
2023-05-02T00:36:18.841Z,82.19
2023-05-02T00:38:46.006Z,81.97
2023-05-02T00:41:12.637Z,82.17
2023-05-02T00:43:42.084Z,82.46
2023-05-02T00:46:08.798Z,82.80
2023-05-02T00:48:36.306Z,82.89
2023-05-02T00:51:05.069Z,82.82
2023-05-02T00:53:31.894Z,82.33
2023-05-02T00:55:59.062Z,82.25
2023-05-02T00:58:26.219Z,82.12
2023-05-02T01:01:04.476Z,82.31
2023-05-02T01:03:31.113Z,82.29
2023-05-02T01:06:16.953Z,82.36
2023-05-02T01:09:06.974Z,82.48
2023-05-02T01:11:39.622Z,82.17
2023-05-02T01:14:09.021Z,81.96
2023-05-02T01:16:40.486Z,81.32
2023-05-02T01:19:10.826Z,81.54
2023-05-02T01:21:37.840Z,81.59
2023-05-02T01:24:12.741Z,81.39
2023-05-02T01:26:39.333Z,81.35
2023-05-02T01:29:07.230Z,81.41
2023-05-02T01:31:38.304Z,81.22
2023-05-02T01:34:06.978Z,81.19
2023-05-02T01:36:34.583Z,81.26
2023-05-02T01:39:01.875Z,81.15
2023-05-02T01:41:30.207Z,80.80
2023-05-02T01:44:01.780Z,80.90
2023-05-02T01:46:31.761Z,80.59
2023-05-02T01:48:59.261Z,80.64
2023-05-02T01:51:31.941Z,80.66
2023-05-02T01:54:02.520Z,80.54
2023-05-02T01:56:32.095Z,80.18
2023-05-02T01:58:59.348Z,80.34
2023-05-02T02:01:27.711Z,79.57
2023-05-02T02:03:58.444Z,80.10
2023-05-02T02:06:26.013Z,79.90
2023-05-02T02:08:52.636Z,80.05
2023-05-02T02:11:25.039Z,79.81
2023-05-02T02:13:55.359Z,79.68
2023-05-02T02:16:42.563Z,79.68
2023-05-02T02:19:11.628Z,79.52
2023-05-02T02:21:41.093Z,79.62
2023-05-02T02:24:08.068Z,79.57
2023-05-02T02:26:35.363Z,79.46
2023-05-02T02:29:01.955Z,79.51
2023-05-02T02:31:35.753Z,79.68
2023-05-02T02:34:02.478Z,79.63
2023-05-02T02:37:05.077Z,79.29
2023-05-02T02:39:49.921Z,79.66
2023-05-02T02:42:23.183Z,79.02
2023-05-02T02:45:09.143Z,79.41
2023-05-02T02:47:49.466Z,79.49
2023-05-02T02:50:19.135Z,79.33
2023-05-02T02:52:45.658Z,79.36
2023-05-02T02:55:35.590Z,79.23
2023-05-02T02:58:06.659Z,79.34
2023-05-02T03:00:33.514Z,79.52
2023-05-02T03:03:00.509Z,79.36
2023-05-02T03:05:27.366Z,79.35
2023-05-02T03:07:54.081Z,79.32
2023-05-02T03:10:22.080Z,79.50
2023-05-02T03:12:49.062Z,79.09
2023-05-02T03:15:54.164Z,79.05
2023-05-02T03:18:20.897Z,79.19
2023-05-02T03:20:47.500Z,79.23
2023-05-02T03:23:14.204Z,79.08
2023-05-02T03:25:40.744Z,79.16
2023-05-02T03:28:07.310Z,79.16
2023-05-02T03:30:33.900Z,79.49
2023-05-02T03:33:01.732Z,79.55
2023-05-02T03:35:28.360Z,79.65
2023-05-02T03:37:54.964Z,79.51
2023-05-02T03:40:22.063Z,79.34
2023-05-02T03:42:48.730Z,79.61
2023-05-02T03:45:15.299Z,79.39
2023-05-02T03:47:42.080Z,79.48
2023-05-02T03:50:08.876Z,79.37
2023-05-02T03:52:35.417Z,79.29
2023-05-02T03:55:02.021Z,79.22
2023-05-02T03:57:30.502Z,78.91
2023-05-02T03:59:57.682Z,79.21
2023-05-02T04:02:25.388Z,78.83
2023-05-02T04:04:52.123Z,78.71
2023-05-02T04:07:19.670Z,78.75
2023-05-02T04:09:46.760Z,78.91
2023-05-02T04:12:15.368Z,78.94
2023-05-02T04:14:41.950Z,78.90
2023-05-02T04:17:08.726Z,78.98
2023-05-02T04:19:35.498Z,78.24
2023-05-02T04:22:02.406Z,78.61
2023-05-02T04:24:29.248Z,78.29
2023-05-02T04:26:55.814Z,77.74
2023-05-02T04:29:22.397Z,76.30
2023-05-02T04:31:49.464Z,76.39
2023-05-02T04:34:16.031Z,76.53
2023-05-02T04:36:45.170Z,76.63
2023-05-02T04:39:11.803Z,76.03
2023-05-02T04:41:38.533Z,76.42
2023-05-02T04:44:05.207Z,76.33
2023-05-02T04:46:31.891Z,75.17
2023-05-02T04:48:58.530Z,75.64
2023-05-02T04:51:25.443Z,75.47
2023-05-02T04:53:52.035Z,75.94
2023-05-02T04:56:18.630Z,75.62
2023-05-02T04:58:45.235Z,73.40
2023-05-02T05:01:11.866Z,68.89
2023-05-02T05:03:38.670Z,72.22
2023-05-02T05:06:05.391Z,73.94
2023-05-02T05:08:32.055Z,72.04
2023-05-02T05:10:58.734Z,70.79
2023-05-02T05:13:25.366Z,63.81
2023-05-02T05:15:52.400Z,69.28
2023-05-02T05:18:19.728Z,69.67
2023-05-02T05:20:46.228Z,70.29
2023-05-02T05:23:12.882Z,70.73
2023-05-02T05:25:40.457Z,70.68
2023-05-02T05:28:09.685Z,70.44
2023-05-02T05:30:36.498Z,70.45
2023-05-02T05:33:03.208Z,70.89
2023-05-02T05:35:29.929Z,66.16
2023-05-02T05:37:56.470Z,67.10
2023-05-02T05:40:23.052Z,67.38
2023-05-02T05:42:49.653Z,67.78
2023-05-02T05:45:19.463Z,66.90
2023-05-02T05:47:46.319Z,67.85
2023-05-02T05:50:12.900Z,60.65
2023-05-02T05:52:39.588Z,66.99
2023-05-02T05:55:06.872Z,66.50
2023-05-02T05:57:33.472Z,67.26
2023-05-02T06:00:00.312Z,66.52
2023-05-02T06:02:27.242Z,60.38
2023-05-02T06:04:53.957Z,58.82
2023-05-02T06:07:20.642Z,53.73
2023-05-02T06:09:47.257Z,61.47
2023-05-02T06:12:15.955Z,64.43
2023-05-02T06:14:42.516Z,64.59
2023-05-02T06:17:09.150Z,54.44
2023-05-02T06:19:35.901Z,61.69
2023-05-02T06:22:02.603Z,57.29
2023-05-02T06:24:29.254Z,59.09
2023-05-02T06:26:55.795Z,56.37
2023-05-02T06:29:22.392Z,55.17
2023-05-02T06:31:51.091Z,52.98
2023-05-02T06:34:17.720Z,48.56
2023-05-02T06:36:44.295Z,52.10
2023-05-02T06:39:11.317Z,46.77
2023-05-02T06:41:37.932Z,44.64
2023-05-02T06:44:04.580Z,43.45
2023-05-02T06:46:32.283Z,49.10
2023-05-02T06:48:58.894Z,43.02
2023-05-02T06:51:26.061Z,42.82
2023-05-02T06:53:52.659Z,44.21
2023-05-02T06:56:19.223Z,48.07
2023-05-02T06:58:45.875Z,46.31
2023-05-02T07:01:13.021Z,46.12
2023-05-02T07:03:39.767Z,47.20
2023-05-02T07:06:06.420Z,47.86
2023-05-02T07:08:33.609Z,48.39
2023-05-02T07:11:00.187Z,44.85
2023-05-02T07:13:26.773Z,45.69
2023-05-02T07:15:53.531Z,46.20
2023-05-02T07:18:21.250Z,45.44
2023-05-02T07:20:47.986Z,44.86
2023-05-02T07:23:14.610Z,44.81
2023-05-02T07:25:41.242Z,44.20
2023-05-02T07:28:08.118Z,45.28
2023-05-02T07:30:34.701Z,46.82
2023-05-02T07:33:01.371Z,45.52
2023-05-02T07:35:28.094Z,44.08
2023-05-02T07:37:54.607Z,45.78
2023-05-02T07:40:21.246Z,46.16
2023-05-02T07:42:48.385Z,46.78
2023-05-02T07:45:14.929Z,44.19
2023-05-02T07:47:42.010Z,44.75
2023-05-02T07:50:09.195Z,41.33
2023-05-02T07:52:35.758Z,41.08
2023-05-02T07:55:02.354Z,40.75
2023-05-02T07:57:30.085Z,41.36
2023-05-02T07:59:57.532Z,41.77
2023-05-02T08:02:24.988Z,43.54
2023-05-02T08:04:51.908Z,41.54
2023-05-02T08:07:18.474Z,41.52
2023-05-02T08:09:45.226Z,41.23
2023-05-02T08:12:11.854Z,43.14
2023-05-02T08:14:38.438Z,41.68
2023-05-02T08:17:05.001Z,38.59
2023-05-02T08:19:32.052Z,37.89
2023-05-02T08:21:58.972Z,41.31
2023-05-02T08:24:25.711Z,42.88
2023-05-02T08:26:52.279Z,38.25
2023-05-02T08:29:18.813Z,38.46
2023-05-02T08:31:45.421Z,41.98
2023-05-02T08:34:12.102Z,39.17
2023-05-02T08:36:38.634Z,41.36
2023-05-02T08:39:05.217Z,36.99
2023-05-02T08:41:31.967Z,38.11
2023-05-02T08:43:59.411Z,36.84
2023-05-02T08:46:26.775Z,39.01
2023-05-02T08:48:53.884Z,36.30
2023-05-02T08:51:22.775Z,38.74
2023-05-02T08:53:49.379Z,39.71
2023-05-02T08:56:16.190Z,40.48
2023-05-02T08:58:42.790Z,39.35
2023-05-02T09:01:21.880Z,37.35
2023-05-02T09:03:48.888Z,37.66
2023-05-02T09:06:16.553Z,36.60
2023-05-02T09:08:44.215Z,36.10
2023-05-02T09:11:12.092Z,37.88
2023-05-02T09:13:45.493Z,35.44
2023-05-02T09:16:13.140Z,38.45
2023-05-02T09:18:39.868Z,39.44
2023-05-02T09:21:09.012Z,39.28
2023-05-02T09:23:36.959Z,38.53
2023-05-02T09:26:11.705Z,39.38
2023-05-02T09:28:40.051Z,37.89
2023-05-02T09:31:49.578Z,36.41
2023-05-02T09:34:15.004Z,34.96
2023-05-02T09:36:43.076Z,36.08
2023-05-02T09:39:14.069Z,36.64
2023-05-02T09:41:42.131Z,33.76
2023-05-02T09:44:09.999Z,36.37
2023-05-02T09:46:40.766Z,37.36
2023-05-02T09:49:08.004Z,37.39
2023-05-02T09:51:34.619Z,37.27
2023-05-02T09:54:01.404Z,33.13
2023-05-02T09:56:28.781Z,35.20
2023-05-02T09:59:13.737Z,36.14
2023-05-02T10:01:42.397Z,36.36
2023-05-02T10:04:16.503Z,38.06
2023-05-02T10:06:43.912Z,34.25
2023-05-02T10:09:17.755Z,30.93
2023-05-02T10:11:46.748Z,29.87
2023-05-02T10:14:15.361Z,32.65
2023-05-02T10:16:47.544Z,29.94
2023-05-02T10:19:17.934Z,27.79
2023-05-02T10:21:45.012Z,29.38
2023-05-02T10:24:14.127Z,26.00
2023-05-02T10:26:40.794Z,26.71
2023-05-02T10:29:07.543Z,29.91
2023-05-02T10:31:34.413Z,30.87
2023-05-02T10:34:02.066Z,23.72
2023-05-02T10:36:28.659Z,30.70
2023-05-02T10:38:55.550Z,31.88
2023-05-02T10:41:24.664Z,26.92
2023-05-02T10:43:51.356Z,30.04
2023-05-02T10:46:37.211Z,21.85
2023-05-02T10:49:10.713Z,21.49
2023-05-02T10:51:39.133Z,21.68
2023-05-02T10:54:18.076Z,27.17
2023-05-02T10:57:03.668Z,27.09
2023-05-02T10:59:31.657Z,22.02
2023-05-02T11:01:58.502Z,28.90
2023-05-02T11:04:25.258Z,28.82
2023-05-02T11:07:15.100Z,19.56
2023-05-02T11:09:41.761Z,23.89
2023-05-02T11:12:08.616Z,25.00
2023-05-02T11:14:35.130Z,18.82
2023-05-02T11:17:01.811Z,18.69
2023-05-02T11:19:31.064Z,22.82
2023-05-02T11:22:16.601Z,23.12
2023-05-02T11:24:44.781Z,22.81
2023-05-02T11:27:30.110Z,19.31
2023-05-02T11:29:56.810Z,19.57
2023-05-02T11:32:23.801Z,21.17
2023-05-02T11:34:52.795Z,20.59
2023-05-02T11:37:21.114Z,21.24
2023-05-02T11:39:47.829Z,20.74
2023-05-02T11:42:30.443Z,20.03
2023-05-02T11:44:57.912Z,19.69
2023-05-02T11:47:26.298Z,20.04
2023-05-02T11:49:54.961Z,19.92
2023-05-02T11:52:21.513Z,18.88
2023-05-02T11:54:48.149Z,16.09
2023-05-02T11:57:15.464Z,18.23
2023-05-02T11:59:55.139Z,18.54
2023-05-02T12:02:35.927Z,19.70
2023-05-02T12:05:03.535Z,18.96
2023-05-02T12:07:45.021Z,20.13
2023-05-02T12:10:12.224Z,19.06
2023-05-02T12:12:39.786Z,18.60
2023-05-02T12:15:10.516Z,19.92
2023-05-02T12:17:38.033Z,20.67
2023-05-02T12:20:06.322Z,20.91
2023-05-02T12:22:33.028Z,18.95
2023-05-02T12:24:59.965Z,18.11
2023-05-02T12:27:27.377Z,19.41
2023-05-02T12:29:54.524Z,16.33
2023-05-02T12:32:28.114Z,18.98
2023-05-02T12:34:54.686Z,16.92
2023-05-02T12:37:24.562Z,17.86
2023-05-02T12:39:51.307Z,18.25
2023-05-02T12:42:19.575Z,17.50
2023-05-02T12:44:46.870Z,17.61
2023-05-02T12:47:16.799Z,18.03
2023-05-02T12:49:53.520Z,18.10
2023-05-02T12:52:20.659Z,17.86
2023-05-02T12:54:47.312Z,15.77
2023-05-02T12:57:26.127Z,16.64
2023-05-02T12:59:54.213Z,18.43
2023-05-02T13:02:21.428Z,17.16
2023-05-02T13:04:48.047Z,18.06
2023-05-02T13:07:14.618Z,17.77
2023-05-02T13:09:41.266Z,17.56
2023-05-02T13:12:08.525Z,16.57
2023-05-02T13:14:35.126Z,17.35
2023-05-02T13:17:01.925Z,17.38
2023-05-02T13:19:31.376Z,17.71
2023-05-02T13:21:58.099Z,17.21
2023-05-02T13:24:24.849Z,15.18
2023-05-02T13:26:51.761Z,17.68
2023-05-02T13:29:18.392Z,15.60
2023-05-02T13:31:44.956Z,17.17
2023-05-02T13:34:11.523Z,17.59
2023-05-02T13:36:44.094Z,18.74
2023-05-02T13:39:10.694Z,15.43
2023-05-02T13:41:37.493Z,16.97
2023-05-02T13:44:04.146Z,17.29
2023-05-02T13:46:36.569Z,16.95
2023-05-02T13:49:03.851Z,17.75
2023-05-02T13:51:33.248Z,18.38
2023-05-02T13:54:00.101Z,18.64
2023-05-02T13:56:26.922Z,15.89
2023-05-02T13:58:53.527Z,17.51
2023-05-02T14:01:20.233Z,17.82
2023-05-02T14:03:47.123Z,16.55
2023-05-02T14:06:13.793Z,18.10
2023-05-02T14:08:40.594Z,17.74
2023-05-02T14:11:07.471Z,17.58
2023-05-02T14:13:34.285Z,17.24
2023-05-02T14:16:00.989Z,17.22
2023-05-02T14:18:27.598Z,17.57
2023-05-02T14:20:54.267Z,17.00
2023-05-02T14:23:21.025Z,17.04
2023-05-02T14:25:47.609Z,16.02
2023-05-02T14:28:14.383Z,15.75
2023-05-02T14:30:40.966Z,17.21
2023-05-02T14:33:07.638Z,16.01
2023-05-02T14:35:34.282Z,18.14
2023-05-02T14:38:01.243Z,16.91
2023-05-02T14:40:28.011Z,18.48
2023-05-02T14:42:54.610Z,18.18
2023-05-02T14:45:21.556Z,17.76
2023-05-02T14:47:48.168Z,18.23
2023-05-02T14:50:14.940Z,18.94
2023-05-02T14:52:42.074Z,19.27
2023-05-02T14:55:08.934Z,18.88
2023-05-02T14:57:35.608Z,19.19
2023-05-02T15:00:02.800Z,20.25
2023-05-02T15:02:30.490Z,20.49
2023-05-02T15:04:57.187Z,19.17
2023-05-02T15:07:23.886Z,21.04
2023-05-02T15:09:50.523Z,19.83
2023-05-02T15:12:17.077Z,20.40
2023-05-02T15:14:43.705Z,20.45
2023-05-02T15:17:10.407Z,21.24
2023-05-02T15:19:37.019Z,21.27
2023-05-02T15:22:03.597Z,21.27
2023-05-02T15:24:30.678Z,22.10
2023-05-02T15:26:57.436Z,22.90
2023-05-02T15:29:24.049Z,23.33
2023-05-02T15:31:50.639Z,23.84
2023-05-02T15:34:17.247Z,23.64
2023-05-02T15:36:43.847Z,24.71
2023-05-02T15:39:10.524Z,24.52
2023-05-02T15:41:37.087Z,25.04
2023-05-02T15:44:03.742Z,25.42
2023-05-02T15:46:30.358Z,24.67
2023-05-02T15:48:57.017Z,26.29
2023-05-02T15:51:23.645Z,25.65
2023-05-02T15:53:52.427Z,27.49
2023-05-02T15:56:21.200Z,26.16
2023-05-02T15:58:48.306Z,25.88
2023-05-02T16:01:14.987Z,27.12
2023-05-02T16:03:42.061Z,27.15
2023-05-02T16:06:08.996Z,26.68
2023-05-02T16:08:35.925Z,26.65
2023-05-02T16:11:02.572Z,26.96
2023-05-02T16:13:29.210Z,27.73
2023-05-02T16:15:56.230Z,28.05
2023-05-02T16:18:28.209Z,28.29
2023-05-02T16:20:55.819Z,28.74
2023-05-02T16:23:23.602Z,28.33
2023-05-02T16:25:50.435Z,28.41
2023-05-02T16:28:17.304Z,28.63
2023-05-02T16:30:43.911Z,29.88
2023-05-02T16:33:10.861Z,28.98
2023-05-02T16:35:37.460Z,29.41
2023-05-02T16:38:04.146Z,30.56
2023-05-02T16:40:31.296Z,29.63
2023-05-02T16:42:57.935Z,29.58
2023-05-02T16:45:24.674Z,29.59
2023-05-02T16:47:51.648Z,30.11
2023-05-02T16:50:18.288Z,30.14
2023-05-02T16:52:44.885Z,30.15
2023-05-02T16:55:11.536Z,30.49
2023-05-02T16:57:39.159Z,30.63
2023-05-02T17:00:08.250Z,30.60
2023-05-02T17:02:34.949Z,30.91
2023-05-02T17:05:01.626Z,31.35
2023-05-02T17:07:28.391Z,31.42
2023-05-02T17:09:54.995Z,31.34
2023-05-02T17:12:25.804Z,32.03
2023-05-02T17:14:52.378Z,31.99
2023-05-02T17:17:22.874Z,32.01
2023-05-02T17:19:49.739Z,31.97
2023-05-02T17:22:16.710Z,32.27
2023-05-02T17:24:45.493Z,32.44
2023-05-02T17:27:12.130Z,32.34
2023-05-02T17:29:38.746Z,32.42
2023-05-02T17:32:05.476Z,33.97
2023-05-02T17:34:33.461Z,33.20
2023-05-02T17:37:00.030Z,32.69
2023-05-02T17:39:26.571Z,32.93
2023-05-02T17:41:53.163Z,32.77
2023-05-02T17:44:19.856Z,32.76
2023-05-02T17:46:46.747Z,32.88
2023-05-02T17:49:13.544Z,33.22
2023-05-02T17:51:40.160Z,33.39
2023-05-02T17:54:06.750Z,33.34
2023-05-02T17:56:35.087Z,33.90
2023-05-02T17:59:01.787Z,33.40
2023-05-02T18:01:28.408Z,33.32
2023-05-02T18:03:55.130Z,33.51
2023-05-02T18:06:21.915Z,33.55
2023-05-02T18:08:48.504Z,34.64
2023-05-02T18:11:16.641Z,34.06
2023-05-02T18:13:43.863Z,33.93
2023-05-02T18:16:10.767Z,33.88
2023-05-02T18:18:37.597Z,33.97
2023-05-02T18:21:04.377Z,34.13
2023-05-02T18:23:31.025Z,34.49
2023-05-02T18:25:57.629Z,34.40
2023-05-02T18:28:24.283Z,34.32
2023-05-02T18:30:51.052Z,34.45
2023-05-02T18:33:17.642Z,34.42
2023-05-02T18:35:48.317Z,34.52
2023-05-02T18:38:15.896Z,34.73
2023-05-02T18:40:42.726Z,35.81
2023-05-02T18:43:09.345Z,35.21
2023-05-02T18:45:36.131Z,35.41
2023-05-02T18:48:03.438Z,35.58
2023-05-02T18:50:30.091Z,35.44
2023-05-02T18:52:56.748Z,35.69
2023-05-02T18:55:25.237Z,35.65
2023-05-02T18:57:52.091Z,36.07
2023-05-02T19:00:20.415Z,36.25
2023-05-02T19:02:48.050Z,36.11
2023-05-02T19:05:15.178Z,36.38
2023-05-02T19:07:42.459Z,36.88
2023-05-02T19:10:10.987Z,36.67
2023-05-02T19:12:37.681Z,37.60
2023-05-02T19:15:05.099Z,36.84
2023-05-02T19:17:31.941Z,36.75
2023-05-02T19:19:58.696Z,37.07
2023-05-02T19:22:27.700Z,37.03
2023-05-02T19:24:54.363Z,37.13
2023-05-02T19:27:21.152Z,37.06
2023-05-02T19:29:47.713Z,37.33
2023-05-02T19:32:14.732Z,37.50
2023-05-02T19:34:41.637Z,37.75
2023-05-02T19:37:08.340Z,37.93
2023-05-02T19:39:35.048Z,37.67
2023-05-02T19:42:03.182Z,37.85
2023-05-02T19:44:30.048Z,37.93
2023-05-02T19:46:56.614Z,37.98
2023-05-02T19:49:23.310Z,38.26
2023-05-02T19:51:49.963Z,38.41
2023-05-02T19:54:16.538Z,38.39
2023-05-02T19:56:43.416Z,38.62
2023-05-02T19:59:10.243Z,38.91
2023-05-02T20:01:36.979Z,38.52
2023-05-02T20:04:05.865Z,39.19
2023-05-02T20:06:33.816Z,38.91
2023-05-02T20:09:00.584Z,38.85
2023-05-02T20:11:27.256Z,38.80
2023-05-02T20:13:54.545Z,39.06
2023-05-02T20:16:21.326Z,39.19
2023-05-02T20:18:48.154Z,39.19
2023-05-02T20:21:14.780Z,39.14
2023-05-02T20:23:43.465Z,39.19
2023-05-02T20:26:10.664Z,38.94
2023-05-02T20:28:37.865Z,39.27
2023-05-02T20:31:04.626Z,39.33
2023-05-02T20:33:43.683Z,39.29
2023-05-02T20:36:13.415Z,39.54
2023-05-02T20:38:42.565Z,39.75
2023-05-02T20:41:12.617Z,39.57
2023-05-02T20:43:40.239Z,39.65
2023-05-02T20:46:10.938Z,39.82
2023-05-02T20:48:37.701Z,40.30
2023-05-02T20:51:04.452Z,39.92
2023-05-02T20:53:31.033Z,40.28
2023-05-02T20:55:57.652Z,40.41
2023-05-02T20:58:24.228Z,40.18
2023-05-02T21:00:52.727Z,40.47
2023-05-02T21:03:22.288Z,40.43
2023-05-02T21:05:52.919Z,40.23
2023-05-02T21:08:19.693Z,40.43
2023-05-02T21:10:46.506Z,40.61
2023-05-02T21:13:13.326Z,40.40
2023-05-02T21:15:40.555Z,40.49
2023-05-02T21:18:07.473Z,40.50
2023-05-02T21:20:34.498Z,40.50
2023-05-02T21:23:01.038Z,40.53
2023-05-02T21:25:27.584Z,40.52
2023-05-02T21:27:54.217Z,40.84
2023-05-02T21:30:21.180Z,40.47
2023-05-02T21:32:47.800Z,40.56
2023-05-02T21:35:14.383Z,40.58
2023-05-02T21:37:41.236Z,40.62
2023-05-02T21:40:08.563Z,41.30
2023-05-02T21:42:35.311Z,40.78
2023-05-02T21:45:02.110Z,40.97
2023-05-02T21:47:30.322Z,40.79
2023-05-02T21:49:57.356Z,40.80
2023-05-02T21:52:23.928Z,41.28
2023-05-02T21:54:52.456Z,41.12
2023-05-02T21:57:22.004Z,41.14
2023-05-02T21:59:48.883Z,41.15
2023-05-02T22:02:15.570Z,41.15
2023-05-02T22:04:43.137Z,42.59
2023-05-02T22:07:09.668Z,41.42
2023-05-02T22:09:36.548Z,41.67
2023-05-02T22:12:03.769Z,41.47
2023-05-02T22:14:43.686Z,41.70
2023-05-02T22:17:12.419Z,41.67
2023-05-02T22:19:39.345Z,41.84
2023-05-02T22:22:06.699Z,42.10
2023-05-02T22:24:33.567Z,42.15
2023-05-02T22:27:00.170Z,42.96
2023-05-02T22:29:26.806Z,42.38
2023-05-02T22:31:53.493Z,42.34
2023-05-02T22:34:20.781Z,42.64
2023-05-02T22:36:47.372Z,42.89
2023-05-02T22:39:15.655Z,43.17
2023-05-02T22:41:42.795Z,43.26
2023-05-02T22:44:09.768Z,42.76
2023-05-02T22:46:38.255Z,43.12
2023-05-02T22:49:06.048Z,43.25
2023-05-02T22:51:33.451Z,43.52
2023-05-02T22:54:00.458Z,43.67
2023-05-02T22:56:27.345Z,43.85
2023-05-02T22:58:53.918Z,43.69
2023-05-02T23:01:20.663Z,44.02
2023-05-02T23:03:47.451Z,44.01
2023-05-02T23:06:15.143Z,43.93
2023-05-02T23:08:41.823Z,44.34
2023-05-02T23:11:08.553Z,44.45
2023-05-02T23:13:35.512Z,44.26
2023-05-02T23:16:02.348Z,44.40
2023-05-02T23:18:28.979Z,45.00
2023-05-02T23:20:55.535Z,44.58
2023-05-02T23:23:22.190Z,44.57
2023-05-02T23:25:48.948Z,46.61
2023-05-02T23:28:15.595Z,45.57
2023-05-02T23:30:42.174Z,44.92
2023-05-02T23:33:09.327Z,46.61
2023-05-02T23:35:36.274Z,44.94
2023-05-02T23:38:05.084Z,45.86
2023-05-02T23:40:32.781Z,45.99
2023-05-02T23:42:59.941Z,45.85
2023-05-02T23:45:26.517Z,46.19
2023-05-02T23:47:53.190Z,46.45
2023-05-02T23:50:19.786Z,46.41
2023-05-02T23:52:46.345Z,46.33
2023-05-02T23:55:13.128Z,46.69
2023-05-02T23:57:39.746Z,46.82
